Time;durP1;ratioP1;P1;durP2;ratioP2;P2;SDS_P1;SDS_P2;PMS_P1;PMS_P2;Temp;Humidity;BMP_temperature;BMP_pressure;BME280_temperature;BME280_humidity;BME280_pressure;Samples;Min_cycle;Max_cycle;Signal;HPM_P1;HPM_P2
2021/12/05 00:18:31;;;;;;;;;0.50;0.50;;;;;4.98;74.84;100091.91;4966139;28;45746;-73
2021/12/05 00:23:50;;;;;;;;;0.25;0.25;;;;;4.83;74.69;100053.00;4968954;28;45225;-73
2021/12/05 00:26:19;;;;;;;;;0.00;0.00;;;;;4.89;74.78;100061.94;4957968;28;45328;-73
2021/12/05 00:29:08;;;;;;;;;0.75;0.00;;;;;4.87;74.12;100061.03;4965110;28;47282;-73
2021/12/05 00:32:22;;;;;;;;;1.00;1.00;;;;;4.91;74.61;100062.91;4957657;27;45355;-73
2021/12/05 00:34:36;;;;;;;;;0.00;0.00;;;;;4.98;74.47;100078.81;4976476;27;45510;-73
2021/12/05 01:16:24;;;;;;;;;2.00;0.25;;;;;4.53;74.94;100021.38;4958494;28;45372;-72
2021/12/05 01:18:50;;;;;;;;;2.25;1.00;;;;;4.49;75.40;100015.16;4968979;28;45169;-72
2021/12/05 01:21:20;;;;;;;;;1.50;1.00;;;;;4.48;75.33;100014.28;4958001;28;46364;-72
2021/12/05 01:29:50;;;;;;;;;0.00;0.00;;;;;4.48;75.35;100027.34;4992939;28;45365;-72
2021/12/05 02:39:31;;;;;;;;;0.00;0.00;;;;;4.08;75.34;99980.53;4963739;28;45196;-72
2021/12/05 02:42:06;;;;;;;;;0.75;0.00;;;;;4.14;75.25;99985.09;4975040;28;45446;-72
2021/12/05 02:44:32;;;;;;;;;0.25;0.25;;;;;4.14;76.44;99978.13;4969962;28;45554;-72
2021/12/05 02:47:07;;;;;;;;;1.00;0.00;;;;;4.02;75.59;99962.88;5017345;28;45348;-72
2021/12/05 02:49:36;;;;;;;;;1.75;0.00;;;;;4.11;76.24;99983.25;4969637;28;45364;-72
2021/12/05 02:52:07;;;;;;;;;0.75;0.00;;;;;4.07;75.81;99972.63;4960543;28;44611;-72
2021/12/05 02:54:39;;;;;;;;;0.00;0.00;;;;;4.01;75.25;99955.88;4965810;28;45377;-72
2021/12/05 02:57:06;;;;;;;;;0.25;0.25;;;;;4.13;75.54;99976.34;4959263;28;48171;-72
2021/12/05 03:02:13;;;;;;;;;1.25;0.00;;;;;4.11;75.48;99974.50;4959343;28;45201;-72
2021/12/05 03:04:43;;;;;;;;;0.75;0.00;;;;;4.09;76.08;99970.94;4968826;28;46408;-72
2021/12/05 03:07:10;;;;;;;;;2.00;1.00;;;;;3.95;75.78;99947.81;4961506;28;45333;-72
2021/12/05 03:09:39;;;;;;;;;0.00;0.00;;;;;4.02;75.33;99954.16;4969549;28;45557;-72
2021/12/05 03:12:09;;;;;;;;;0.00;0.00;;;;;4.04;76.12;99953.38;4959306;28;45289;-72
2021/12/05 03:14:35;;;;;;;;;1.00;0.00;;;;;4.04;76.04;99961.22;4965380;28;45291;-72
2021/12/05 03:17:00;;;;;;;;;0.75;0.00;;;;;3.95;75.80;99946.91;4958412;28;46605;-72
2021/12/05 03:19:27;;;;;;;;;0.50;0.00;;;;;4.03;76.02;99958.53;4965830;28;45375;-72
2021/12/05 03:21:52;;;;;;;;;0.00;0.00;;;;;3.91;76.22;99947.63;4955924;28;45486;-72
2021/12/05 03:24:20;;;;;;;;;1.00;0.00;;;;;3.93;76.03;99936.41;4981615;28;45767;-72
2021/12/05 03:26:48;;;;;;;;;0.00;0.00;;;;;3.87;76.04;99923.09;4956894;28;45418;-72
2021/12/05 03:29:16;;;;;;;;;1.00;1.00;;;;;3.95;75.65;99947.81;4968178;28;45885;-72
2021/12/05 03:31:42;;;;;;;;;1.00;0.00;;;;;3.87;75.66;99945.75;4960188;28;45305;-72
2021/12/05 03:34:11;;;;;;;;;0.00;0.00;;;;;3.84;75.92;99922.09;4970428;28;45375;-72
2021/12/05 03:36:39;;;;;;;;;0.00;0.00;;;;;3.89;76.45;99938.84;4959218;28;45526;-72
2021/12/05 03:39:07;;;;;;;;;1.00;0.00;;;;;3.95;75.35;99953.03;4967804;28;45331;-72
2021/12/05 03:41:34;;;;;;;;;1.00;0.00;;;;;3.90;75.56;99945.88;4960101;28;45225;-72
2021/12/05 03:44:02;;;;;;;;;0.00;0.00;;;;;3.85;75.41;99942.19;4967559;28;46077;-72
2021/12/05 03:46:28;;;;;;;;;1.00;0.00;;;;;3.87;75.37;99949.25;5025383;28;47735;-72
2021/12/05 03:49:00;;;;;;;;;1.00;0.00;;;;;3.87;75.70;99944.03;4974350;27;45277;-72
2021/12/05 03:51:31;;;;;;;;;0.00;0.00;;;;;3.86;76.07;99934.38;4958555;28;45498;-72
2021/12/05 03:53:57;;;;;;;;;0.00;0.00;;;;;3.61;75.81;99895.97;4965802;28;45228;-72
2021/12/05 03:56:22;;;;;;;;;0.00;0.00;;;;;3.84;75.94;99935.16;4979061;28;45600;-72
2021/12/05 03:58:50;;;;;;;;;1.00;0.00;;;;;3.88;76.45;99944.91;4968076;28;45426;-72
2021/12/05 04:01:17;;;;;;;;;1.75;0.00;;;;;3.80;76.04;99932.44;4979234;28;45316;-72
2021/12/05 04:03:45;;;;;;;;;0.00;0.00;;;;;3.75;76.01;99926.16;4972415;28;47348;-72
2021/12/05 04:06:15;;;;;;;;;0.00;0.00;;;;;3.84;75.84;99943.00;4978529;28;45472;-72
2021/12/05 04:08:41;;;;;;;;;0.00;0.00;;;;;3.77;75.66;99931.44;4973517;28;45355;-72
2021/12/05 04:11:13;;;;;;;;;0.00;0.00;;;;;3.81;75.87;99941.19;4965028;28;45355;-72
2021/12/05 04:13:38;;;;;;;;;0.00;0.00;;;;;3.78;75.93;99944.56;4969790;28;45548;-72
2021/12/05 04:16:06;;;;;;;;;0.00;0.00;;;;;3.79;75.73;99941.13;4959467;28;45285;-72
2021/12/05 04:18:32;;;;;;;;;0.00;0.00;;;;;3.65;76.26;99915.31;4968738;28;45491;-72
2021/12/05 04:20:58;;;;;;;;;1.75;0.00;;;;;3.76;75.46;99933.16;4960139;28;45405;-71
2021/12/05 04:23:24;;;;;;;;;1.00;0.00;;;;;3.78;75.75;99938.44;4967575;28;45518;-72
2021/12/05 04:25:51;;;;;;;;;0.00;0.00;;;;;3.70;75.43;99924.22;4960045;28;48160;-72
2021/12/05 04:28:18;;;;;;;;;0.00;0.00;;;;;3.57;75.55;99904.56;4966707;28;44749;-72
2021/12/05 04:30:43;;;;;;;;;1.00;0.00;;;;;3.69;75.59;99915.47;4962393;28;45304;-72
2021/12/05 04:33:09;;;;;;;;;0.00;0.00;;;;;3.73;74.90;99925.22;4965501;28;45530;-72
2021/12/05 04:35:35;;;;;;;;;0.00;0.00;;;;;3.70;74.94;99914.66;4963078;28;46348;-72
2021/12/05 04:38:00;;;;;;;;;0.00;0.00;;;;;3.70;75.21;99913.75;4967039;28;45360;-72
2021/12/05 04:40:26;;;;;;;;;0.00;0.00;;;;;3.71;75.73;99913.81;4963646;28;45221;-72
2021/12/05 04:42:52;;;;;;;;;2.50;0.00;;;;;3.69;75.78;99911.97;4965281;28;45396;-72
2021/12/05 04:45:22;;;;;;;;;0.00;0.00;;;;;3.69;75.22;99911.97;4958787;28;46545;-71
2021/12/05 04:47:48;;;;;;;;;0.00;0.00;;;;;3.66;75.26;99917.06;5022030;27;44738;-71
2021/12/05 04:50:15;;;;;;;;;0.00;0.00;;;;;3.63;75.50;99906.50;4971032;28;45496;-71
2021/12/05 04:52:41;;;;;;;;;0.00;0.00;;;;;3.65;75.49;99910.06;4972851;28;45574;-71
2021/12/05 04:55:08;;;;;;;;;0.00;0.00;;;;;3.68;75.63;99912.81;4966801;28;46354;-71
2021/12/05 04:57:34;;;;;;;;;0.00;0.00;;;;;3.65;75.14;99902.25;4961255;28;45445;-71
2021/12/05 05:00:00;;;;;;;;;0.25;0.00;;;;;3.66;75.14;99899.66;4975121;28;45347;-71
2021/12/05 05:02:25;;;;;;;;;2.50;0.00;;;;;3.67;75.25;99904.09;4976409;28;45258;-70
2021/12/05 05:04:52;;;;;;;;;0.00;0.00;;;;;3.60;75.59;99894.22;4969396;28;46558;-72
2021/12/05 05:07:25;;;;;;;;;0.00;0.00;;;;;3.52;75.40;99872.13;4974845;28;45513;-71
2021/12/05 05:09:58;;;;;;;;;0.00;0.00;;;;;3.51;75.36;99879.09;4977040;28;44728;-71
2021/12/05 05:12:24;;;;;;;;;0.00;0.00;;;;;3.67;75.52;99909.31;4961084;28;45368;-71
2021/12/05 05:14:51;;;;;;;;;0.00;0.00;;;;;3.66;76.03;99890.94;4966911;28;46412;-71
2021/12/05 05:17:16;;;;;;;;;0.00;0.00;;;;;3.71;75.00;99892.00;4960895;28;45284;-71
2021/12/05 05:19:48;;;;;;;;;0.00;0.00;;;;;3.64;75.82;99882.16;4967129;28;45158;-72
2021/12/05 05:41:16;;;;;;;;;0.00;0.00;;;;;3.87;75.85;99922.22;4958558;28;45214;-72
2021/12/05 05:43:42;;;;;;;;;0.00;0.00;;;;;3.86;75.79;99902.13;4960271;28;45414;-72
2021/12/05 05:48:58;;;;;;;;;0.00;0.00;;;;;3.99;75.87;99915.69;4990938;27;45405;-72
2021/12/05 05:51:22;;;;;;;;;0.00;0.00;;;;;3.93;76.14;99901.53;4957910;28;45336;-72
2021/12/05 05:53:48;;;;;;;;;1.50;0.00;;;;;4.01;76.19;99905.31;4969535;28;46082;-72
2021/12/05 05:56:22;;;;;;;;;0.25;0.00;;;;;4.03;75.82;99901.00;4976348;28;47596;-72
2021/12/05 05:59:01;;;;;;;;;0.00;0.00;;;;;3.94;76.01;99882.38;4970673;28;45203;-72
2021/12/05 06:04:01;;;;;;;;;0.00;0.00;;;;;4.06;75.52;99902.84;4965395;28;45532;-72
2021/12/05 06:06:28;;;;;;;;;3.00;0.25;;;;;4.04;75.76;99890.63;4977022;28;45752;-72
2021/12/05 06:08:53;;;;;;;;;1.00;1.00;;;;;4.11;76.13;99898.69;4974765;28;45627;-72
2021/12/05 06:11:18;;;;;;;;;0.75;0.75;;;;;4.00;75.89;99867.78;4968877;28;45477;-72
2021/12/05 06:13:45;;;;;;;;;1.00;1.00;;;;;4.09;76.21;99884.66;4961614;28;46385;-72
2021/12/05 06:16:13;;;;;;;;;1.00;0.00;;;;;4.15;75.91;99892.72;4957625;28;45390;-72
2021/12/05 06:18:39;;;;;;;;;0.25;0.00;;;;;4.15;75.53;99895.34;4967720;28;45340;-72
2021/12/05 06:21:06;;;;;;;;;1.00;0.00;;;;;3.97;75.99;99861.56;4958152;28;45495;-72
2021/12/05 06:23:32;;;;;;;;;0.00;0.00;;;;;4.17;75.96;99902.41;4964321;28;46522;-72
2021/12/05 06:25:58;;;;;;;;;1.00;0.00;;;;;4.18;75.57;99901.56;4975451;28;45531;-72
2021/12/05 06:28:33;;;;;;;;;1.00;0.00;;;;;4.13;76.27;99891.78;4970698;28;45352;-72
2021/12/05 06:31:21;;;;;;;;;0.00;0.00;;;;;4.17;75.63;99902.41;4962867;28;45386;-72
2021/12/05 06:36:59;;;;;;;;;2.00;0.00;;;;;4.12;76.05;99890.91;4957151;28;45804;-72
2021/12/05 06:40:18;;;;;;;;;1.00;0.25;;;;;4.13;76.13;99886.56;4974028;28;45893;-72
2021/12/05 06:47:42;;;;;;;;;1.00;0.00;;;;;4.20;76.19;99907.75;5022336;28;45239;-71
2021/12/05 06:50:07;;;;;;;;;0.00;0.00;;;;;4.20;75.58;99905.13;4965479;28;45330;-72
2021/12/05 06:52:33;;;;;;;;;2.00;0.00;;;;;4.30;76.03;99916.78;4961860;28;44739;-72
2021/12/05 06:54:58;;;;;;;;;0.00;0.00;;;;;4.21;76.90;99908.63;4968039;28;45356;-71
2021/12/05 06:57:24;;;;;;;;;5.75;0.50;;;;;4.18;77.02;99895.44;4972699;28;45428;-72
2021/12/05 06:59:49;;;;;;;;;1.00;0.00;;;;;4.31;76.42;99922.91;4965621;28;45265;-72
2021/12/05 07:02:18;;;;;;;;;1.00;0.00;;;;;4.27;76.41;99916.69;4960556;28;45579;-72
2021/12/05 07:05:04;;;;;;;;;0.00;0.00;;;;;4.26;76.70;99900.13;4966920;28;45460;-72
2021/12/05 07:07:34;;;;;;;;;0.75;0.00;;;;;4.32;76.56;99909.91;4964218;28;45324;-72
2021/12/05 07:10:00;;;;;;;;;1.00;0.00;;;;;4.30;77.19;99900.22;4974220;27;45287;-72
2021/12/05 07:15:16;;;;;;;;;0.25;0.00;;;;;4.37;77.84;99910.03;4964657;28;45380;-72
2021/12/05 07:20:46;;;;;;;;;1.00;1.00;;;;;4.40;76.25;99916.28;4965504;28;45232;-72
2021/12/05 07:25:45;;;;;;;;;1.00;0.00;;;;;4.34;76.83;99904.72;4960008;28;45209;-72
2021/12/05 07:42:04;;;;;;;;;1.00;0.00;;;;;4.37;77.15;99899.56;4977466;28;45656;-74
2021/12/05 07:44:30;;;;;;;;;1.75;1.00;;;;;4.41;77.35;99907.59;4961233;28;45345;-72
2021/12/05 07:46:56;;;;;;;;;0.00;0.00;;;;;4.43;77.39;99913.78;5024521;28;45400;-73
2021/12/05 07:49:21;;;;;;;;;1.00;0.00;;;;;4.38;77.12;99897.03;4968183;28;45530;-73
2021/12/05 07:51:49;;;;;;;;;0.00;0.00;;;;;4.53;76.71;99921.94;4959552;28;45295;-72
2021/12/05 07:54:36;;;;;;;;;1.25;1.00;;;;;4.40;77.10;99915.41;4970179;28;45192;-73
2021/12/05 07:57:27;;;;;;;;;1.00;0.00;;;;;4.46;77.67;99924.34;4960689;28;45513;-72
2021/12/05 08:16:11;;;;;;;;;0.00;0.00;;;;;4.65;77.64;99914.47;4958194;28;44847;-72
2021/12/05 08:18:37;;;;;;;;;0.00;0.00;;;;;4.76;77.30;99925.31;4962804;28;45639;-72
2021/12/05 08:21:06;;;;;;;;;0.25;0.25;;;;;4.75;77.56;99924.44;4962531;27;47889;-73
2021/12/05 08:23:32;;;;;;;;;0.00;0.00;;;;;4.59;77.41;99885.50;4972072;28;45560;-73
2021/12/05 08:26:13;;;;;;;;;0.00;0.00;;;;;4.74;78.19;99920.06;4960837;28;45327;-73
2021/12/05 08:34:01;;;;;;;;;3.00;1.00;;;;;4.88;77.97;99944.97;4971861;28;45373;-72
2021/12/05 08:36:57;;;;;;;;;1.00;1.00;;;;;4.85;78.06;99937.00;4958646;28;45683;-72
2021/12/05 08:45:28;;;;;;;;;3.00;1.25;;;;;4.98;77.59;99947.88;4965045;28;45434;-73
2021/12/05 09:27:55;;;;;;;;;3.00;1.00;;;;;5.48;77.01;99940.75;4958401;28;45236;-74
2021/12/05 10:08:46;;;;;;;;;3.75;2.00;;;;;6.08;76.81;99961.81;4980534;28;45758;-73
2021/12/05 10:11:24;;;;;;;;;3.25;2.00;;;;;6.13;77.22;99962.81;4957559;28;45288;-73
2021/12/05 10:14:13;;;;;;;;;3.00;3.00;;;;;6.19;76.87;99969.97;4962148;28;45293;-73
2021/12/05 10:36:05;;;;;;;;;3.00;3.00;;;;;6.59;76.39;99965.84;4972985;28;45237;-73
2021/12/05 10:38:40;;;;;;;;;3.00;3.00;;;;;6.71;76.28;99976.66;4966581;28;46036;-73
2021/12/05 10:43:40;;;;;;;;;7.00;3.00;;;;;6.65;75.41;99947.63;4961718;28;45433;-73
2021/12/05 10:46:11;;;;;;;;;3.25;3.00;;;;;6.76;75.53;99977.66;5006360;28;45280;-73
2021/12/05 10:48:39;;;;;;;;;2.50;2.25;;;;;6.63;75.41;99968.56;4990561;28;46318;-73
2021/12/05 10:51:08;;;;;;;;;7.25;6.00;;;;;6.57;75.22;99949.16;4960632;28;46409;-73
2021/12/05 10:53:50;;;;;;;;;11.50;10.75;;;;;6.72;75.81;99966.22;4964381;28;45561;-73
2021/12/05 10:56:21;;;;;;;;;6.75;6.75;;;;;6.76;75.28;99961.03;4959828;28;45337;-73
2021/12/05 10:59:06;;;;;;;;;9.00;6.00;;;;;6.74;75.28;99968.84;4970198;28;46427;-73
2021/12/05 11:01:45;;;;;;;;;2.00;1.75;;;;;6.70;75.39;99959.13;4965093;28;45454;-73
2021/12/05 11:04:21;;;;;;;;;8.00;3.00;;;;;6.64;75.34;99943.22;4971589;28;46116;-74
2021/12/05 11:06:52;;;;;;;;;1.50;1.50;;;;;6.72;75.46;99957.41;4978025;28;45210;-74
2021/12/05 11:09:37;;;;;;;;;9.00;8.75;;;;;6.72;75.40;99947.81;4985091;28;45344;-73
2021/12/05 11:12:17;;;;;;;;;11.75;8.00;;;;;6.73;75.85;99956.59;4960499;28;45763;-73
2021/12/05 11:14:55;;;;;;;;;4.50;4.50;;;;;6.66;75.78;99944.13;4967279;28;45395;-73
2021/12/05 11:17:31;;;;;;;;;8.50;6.25;;;;;6.68;75.44;99969.59;4961121;28;45412;-73
2021/12/05 11:20:02;;;;;;;;;3.00;2.00;;;;;6.67;75.31;99964.31;4967125;28;45613;-73
2021/12/05 11:22:39;;;;;;;;;11.75;7.50;;;;;6.65;75.86;99966.88;4961032;28;45371;-72
2021/12/05 11:25:10;;;;;;;;;5.50;5.50;;;;;6.48;76.71;99948.06;4968855;28;45394;-72
2021/12/05 11:27:38;;;;;;;;;2.00;2.00;;;;;6.61;75.58;99975.53;4968223;28;46791;-72
2021/12/05 11:30:13;;;;;;;;;5.00;5.00;;;;;6.57;76.22;99971.03;4959842;28;45619;-72
2021/12/05 11:32:51;;;;;;;;;5.00;5.00;;;;;6.53;76.50;99979.69;4961282;28;46340;-73
2021/12/05 11:35:19;;;;;;;;;7.00;5.50;;;;;6.47;76.41;99964.66;4959284;28;45389;-73
2021/12/05 11:38:19;;;;;;;;;6.25;3.00;;;;;6.48;76.14;99971.69;4963773;28;45432;-73
2021/12/05 11:40:51;;;;;;;;;7.25;3.00;;;;;6.41;76.34;99980.25;4960127;28;45457;-72
2021/12/05 11:43:19;;;;;;;;;6.75;6.75;;;;;6.29;77.13;99990.38;4960770;28;47267;-73
2021/12/05 11:46:03;;;;;;;;;6.50;4.25;;;;;6.28;76.17;99999.13;4994585;28;45468;-73
2021/12/05 11:48:40;;;;;;;;;3.75;3.75;;;;;6.22;76.33;100006.81;4995667;28;45508;-73
2021/12/05 11:51:17;;;;;;;;;6.50;5.50;;;;;6.15;76.11;100002.22;4976520;28;45396;-73
2021/12/05 11:53:47;;;;;;;;;2.00;2.00;;;;;5.74;76.24;99959.88;4967804;28;47528;-74
2021/12/05 11:56:36;;;;;;;;;0.25;0.25;;;;;5.89;76.45;100012.81;4959025;28;45261;-73
2021/12/05 11:59:07;;;;;;;;;0.50;0.50;;;;;5.82;76.26;100014.34;4969838;28;45316;-72
2021/12/05 12:01:36;;;;;;;;;0.25;0.25;;;;;5.75;75.89;100015.00;4957198;28;45549;-72
2021/12/05 12:04:02;;;;;;;;;1.25;1.00;;;;;5.64;76.26;100007.66;4969495;28;46955;-72
2021/12/05 12:06:28;;;;;;;;;3.00;3.00;;;;;5.61;76.09;100022.44;4956773;28;45203;-73
2021/12/05 12:08:54;;;;;;;;;1.25;1.25;;;;;5.50;75.88;100008.09;4985148;28;45244;-72
2021/12/05 12:11:20;;;;;;;;;1.00;1.00;;;;;5.46;76.37;100000.06;4958537;28;45227;-72
2021/12/05 12:13:47;;;;;;;;;0.00;0.00;;;;;5.50;75.46;100008.09;4968627;28;46435;-73
2021/12/05 12:16:13;;;;;;;;;2.00;1.00;;;;;5.41;75.96;100002.56;4969221;28;45431;-72
2021/12/05 12:18:43;;;;;;;;;0.50;0.50;;;;;5.43;75.82;100007.84;4959148;28;45304;-72
2021/12/05 12:21:17;;;;;;;;;0.75;0.00;;;;;5.36;76.44;100005.03;4958169;28;45479;-73
2021/12/05 12:23:44;;;;;;;;;1.00;1.00;;;;;5.36;75.57;100012.00;4967997;28;45412;-72
2021/12/05 12:26:10;;;;;;;;;1.00;1.00;;;;;5.34;75.93;100017.19;4959218;28;45229;-72
2021/12/05 12:28:37;;;;;;;;;1.75;0.75;;;;;5.25;75.38;100019.50;4967383;28;45366;-72
2021/12/05 12:31:17;;;;;;;;;3.00;1.00;;;;;5.32;76.11;100037.22;4959978;28;45538;-73
2021/12/05 12:33:51;;;;;;;;;1.00;1.00;;;;;5.21;75.58;100012.41;4960352;28;45503;-72
2021/12/05 12:36:52;;;;;;;;;1.25;1.25;;;;;5.20;76.37;100033.31;4970567;28;45472;-73
2021/12/05 12:39:20;;;;;;;;;2.00;0.50;;;;;5.21;75.79;100040.31;4959502;28;45285;-72
2021/12/05 12:42:12;;;;;;;;;2.50;1.00;;;;;5.19;76.15;100040.28;4975567;28;46122;-72
2021/12/05 12:44:56;;;;;;;;;0.00;0.00;;;;;5.16;76.51;100037.56;4968673;28;46908;-72
2021/12/05 12:47:34;;;;;;;;;3.00;3.00;;;;;5.15;75.84;100022.66;5031961;28;45337;-71
2021/12/05 12:50:18;;;;;;;;;3.00;3.00;;;;;5.20;77.02;100039.44;4966196;28;45340;-71
2021/12/05 12:52:58;;;;;;;;;5.00;2.25;;;;;5.26;76.69;100046.59;4960042;28;45630;-73
2021/12/05 12:55:32;;;;;;;;;8.50;5.25;;;;;5.37;76.36;100053.09;4962787;28;45438;-72
2021/12/05 12:57:58;;;;;;;;;13.25;9.50;;;;;5.38;76.74;100036.53;4963296;28;45388;-72
2021/12/05 13:00:28;;;;;;;;;2.00;2.00;;;;;5.36;76.43;100025.13;4970344;28;45228;-72
2021/12/05 13:02:59;;;;;;;;;5.75;5.00;;;;;5.56;76.76;100055.47;4968785;28;46296;-72
2021/12/05 13:11:13;;;;;;;;;6.00;5.00;;;;;5.82;76.96;100042.28;4958982;28;45367;-72
2021/12/05 13:13:42;;;;;;;;;7.75;7.00;;;;;5.92;76.14;100052.22;4966834;28;46034;-72
2021/12/05 13:16:15;;;;;;;;;5.25;5.25;;;;;6.02;76.29;100066.53;4958160;28;45471;-72
2021/12/05 13:18:43;;;;;;;;;6.50;6.50;;;;;6.04;76.98;100059.63;4969430;28;45307;-72
2021/12/05 13:21:16;;;;;;;;;23.75;21.50;;;;;6.17;75.85;100063.50;4958308;28;44714;-73
2021/12/05 13:23:50;;;;;;;;;3.00;3.00;;;;;6.23;76.17;100063.69;4967206;28;45291;-73
2021/12/05 13:26:30;;;;;;;;;6.00;5.50;;;;;6.28;76.19;100062.09;4957742;28;45365;-72
2021/12/05 13:29:23;;;;;;;;;3.00;3.00;;;;;6.16;76.31;100039.00;4964125;28;45464;-72
2021/12/05 13:32:04;;;;;;;;;13.75;12.75;;;;;6.39;75.34;100065.03;4967037;28;45281;-72
2021/12/05 13:34:43;;;;;;;;;3.75;3.00;;;;;6.42;75.76;100062.50;4962916;28;45394;-72
2021/12/05 13:37:09;;;;;;;;;8.25;6.50;;;;;6.45;75.42;100066.09;4972912;28;47135;-71
2021/12/05 13:40:04;;;;;;;;;8.25;7.00;;;;;6.45;75.28;100060.84;4958657;28;45441;-73
2021/12/05 13:42:37;;;;;;;;;47.75;42.75;;;;;6.53;75.54;100070.69;4962237;28;45386;-72
2021/12/05 13:45:44;;;;;;;;;7.50;6.50;;;;;6.48;75.54;100057.44;4973463;28;46292;-73
2021/12/05 13:48:17;;;;;;;;;6.00;6.00;;;;;6.55;76.24;100077.75;4965548;28;45719;-73
2021/12/05 13:50:56;;;;;;;;;8.00;4.25;;;;;6.53;74.94;100070.69;4970630;28;45262;-73
2021/12/05 13:53:25;;;;;;;;;8.00;4.75;;;;;6.57;75.17;100083.94;4970370;28;45473;-74
2021/12/05 13:55:53;;;;;;;;;12.00;10.75;;;;;6.61;75.84;100082.28;4960803;28;45545;-73
2021/12/05 13:58:40;;;;;;;;;5.00;5.00;;;;;6.63;76.24;100084.09;4963280;28;45516;-73
2021/12/05 14:01:25;;;;;;;;;6.75;5.75;;;;;6.66;76.04;100088.56;4974871;28;45427;-73
2021/12/05 14:04:23;;;;;;;;;6.25;6.00;;;;;6.68;76.24;100092.13;4964952;28;45317;-73
2021/12/05 14:07:01;;;;;;;;;7.75;2.00;;;;;6.63;75.60;100078.84;4957660;28;46622;-73
2021/12/05 14:09:40;;;;;;;;;2.00;2.00;;;;;6.64;75.26;100091.16;4985335;28;45448;-73
2021/12/05 14:12:30;;;;;;;;;6.00;4.25;;;;;6.66;75.35;100091.19;4958000;28;45525;-73
2021/12/05 14:15:00;;;;;;;;;1.25;1.25;;;;;6.67;75.21;100096.50;4957092;28;45204;-73
2021/12/05 14:17:33;;;;;;;;;7.00;5.00;;;;;6.61;75.14;100085.81;4989488;28;47571;-73
2021/12/05 14:20:15;;;;;;;;;7.00;7.00;;;;;6.57;75.61;100083.94;4965266;28;45583;-73
2021/12/05 14:22:43;;;;;;;;;8.50;7.00;;;;;6.60;76.10;100088.38;4959110;28;45514;-73
2021/12/05 14:25:12;;;;;;;;;13.00;6.00;;;;;6.61;75.48;100093.69;4965501;28;45418;-73
2021/12/05 14:27:48;;;;;;;;;9.00;6.00;;;;;6.55;75.56;100087.34;4966483;28;47280;-73
2021/12/05 14:30:19;;;;;;;;;4.50;4.50;;;;;6.54;75.29;100078.59;4957525;28;47114;-73
2021/12/05 14:32:46;;;;;;;;;4.00;3.75;;;;;6.66;75.46;100113.06;4967114;28;45861;-73
2021/12/05 14:35:23;;;;;;;;;4.00;2.00;;;;;6.64;74.96;100117.41;4955979;28;45338;-73
2021/12/05 14:37:51;;;;;;;;;2.00;2.00;;;;;6.52;75.23;100103.03;4956724;28;45343;-73
2021/12/05 14:40:31;;;;;;;;;3.00;3.00;;;;;6.52;74.71;100103.03;4958791;28;45248;-73
2021/12/05 14:43:19;;;;;;;;;2.00;2.00;;;;;6.51;75.76;100110.03;4961303;28;45412;-73
2021/12/05 14:45:45;;;;;;;;;17.75;17.00;;;;;6.52;75.31;100116.16;4960182;28;45434;-74
2021/12/05 14:48:13;;;;;;;;;8.00;8.00;;;;;6.61;75.71;100140.97;4960411;28;46726;-74
2021/12/05 14:50:40;;;;;;;;;12.25;6.00;;;;;6.50;75.93;100129.25;4955785;28;45466;-73
2021/12/05 14:53:09;;;;;;;;;6.50;3.50;;;;;6.54;75.89;100130.22;4958081;28;45391;-73
2021/12/05 14:55:36;;;;;;;;;10.25;7.00;;;;;6.61;75.85;100146.22;4956084;28;45250;-74
2021/12/05 14:58:08;;;;;;;;;3.50;2.00;;;;;6.62;76.18;100153.25;4961548;28;45492;-73
2021/12/05 15:00:42;;;;;;;;;8.25;7.25;;;;;6.58;76.44;100156.63;4955615;28;45631;-73
2021/12/05 15:03:11;;;;;;;;;11.50;10.00;;;;;6.66;75.93;100156.84;4961173;28;46381;-73
2021/12/05 15:05:38;;;;;;;;;7.75;6.25;;;;;6.65;76.75;100158.56;4955842;28;45270;-73
2021/12/05 15:08:12;;;;;;;;;2.50;2.50;;;;;6.66;76.21;100157.72;4957752;28;45305;-73
2021/12/05 15:10:41;;;;;;;;;3.25;2.00;;;;;6.72;76.06;100165.81;4957450;28;46681;-73
2021/12/05 15:13:08;;;;;;;;;1.00;1.00;;;;;6.64;75.21;100155.91;4960134;28;45308;-74
2021/12/05 15:15:35;;;;;;;;;4.50;4.50;;;;;6.72;75.66;100180.66;4954268;28;45557;-74
2021/12/05 15:18:01;;;;;;;;;1.50;1.50;;;;;6.64;75.58;100167.31;4959167;28;45431;-73
2021/12/05 15:20:29;;;;;;;;;3.00;3.00;;;;;6.50;75.61;100150.25;4961179;28;47486;-73
2021/12/05 15:23:02;;;;;;;;;6.75;4.00;;;;;6.63;76.06;100189.16;4959768;28;45464;-73
2021/12/05 15:25:28;;;;;;;;;3.00;3.00;;;;;6.68;75.84;100198.06;4963948;28;45197;-73
2021/12/05 15:27:55;;;;;;;;;3.50;3.50;;;;;6.57;75.61;100201.22;4960723;28;45387;-73
2021/12/05 15:30:25;;;;;;;;;4.50;4.00;;;;;6.49;76.15;100200.97;4970676;28;45493;-73
2021/12/05 15:32:57;;;;;;;;;14.25;14.25;;;;;6.61;77.02;100230.25;4971055;28;45261;-74
2021/12/05 15:35:24;;;;;;;;;6.75;6.75;;;;;6.56;76.40;100209.94;4957709;28;45365;-73
2021/12/05 15:37:51;;;;;;;;;6.75;5.50;;;;;6.53;76.70;100221.25;4960762;28;45345;-74
2021/12/05 15:40:17;;;;;;;;;4.75;4.50;;;;;6.50;76.81;100223.78;4959295;28;45603;-74
2021/12/05 15:42:42;;;;;;;;;4.50;4.50;;;;;6.53;76.59;100229.13;4963768;28;45330;-73
2021/12/05 15:45:11;;;;;;;;;5.00;2.50;;;;;6.56;76.42;100244.97;4968789;28;45293;-74
2021/12/05 15:47:39;;;;;;;;;6.00;4.00;;;;;6.40;76.69;100230.44;5032120;28;45422;-77
2021/12/05 15:50:17;;;;;;;;;7.00;3.25;;;;;6.36;75.86;100232.91;4963882;28;45363;-74
2021/12/05 15:52:58;;;;;;;;;8.00;6.00;;;;;6.43;76.39;100259.41;4971386;28;46400;-74
2021/12/05 15:55:44;;;;;;;;;5.00;4.25;;;;;6.42;76.33;100267.25;4966580;28;45223;-74
2021/12/05 15:58:20;;;;;;;;;5.00;2.00;;;;;6.36;76.82;100282.78;4971132;28;45295;-74
2021/12/05 16:00:45;;;;;;;;;5.25;5.25;;;;;6.36;75.86;100288.03;4963145;28;45676;-74
2021/12/05 16:03:24;;;;;;;;;8.50;7.50;;;;;6.16;76.82;100264.69;4961115;28;45915;-74
2021/12/05 16:06:09;;;;;;;;;6.50;6.50;;;;;6.32;76.07;100291.41;4960328;28;45631;-74
2021/12/05 16:08:35;;;;;;;;;6.00;6.00;;;;;6.22;76.88;100278.00;4984366;28;45439;-74
2021/12/05 16:11:01;;;;;;;;;7.75;6.50;;;;;6.28;76.75;100287.81;4959320;28;48313;-74
2021/12/05 16:13:38;;;;;;;;;6.25;6.00;;;;;6.23;76.70;100290.25;4964736;28;45785;-74
2021/12/05 16:16:15;;;;;;;;;4.25;4.25;;;;;6.22;76.65;100291.13;4960413;28;45426;-74
2021/12/05 16:18:45;;;;;;;;;6.00;6.00;;;;;6.20;76.13;100294.53;4967563;28;45289;-73
2021/12/05 16:21:17;;;;;;;;;7.50;6.00;;;;;6.25;76.94;100309.59;4959272;28;45329;-74
2021/12/05 16:23:43;;;;;;;;;9.75;6.25;;;;;6.28;76.33;100314.94;4967462;28;45502;-74
2021/12/05 16:26:15;;;;;;;;;6.50;6.00;;;;;6.34;76.72;100326.50;4960112;28;45253;-74
2021/12/05 16:28:48;;;;;;;;;10.00;7.25;;;;;6.24;76.96;100307.78;4962944;28;45296;-74
2021/12/05 16:31:20;;;;;;;;;6.75;5.25;;;;;6.32;76.94;100322.91;4984278;28;45530;-74
2021/12/05 16:33:49;;;;;;;;;5.75;5.75;;;;;6.35;76.28;100331.78;4990182;28;45391;-74
2021/12/05 16:36:18;;;;;;;;;7.25;7.25;;;;;6.24;77.08;100320.91;4958369;28;45413;-74
2021/12/05 16:38:47;;;;;;;;;7.00;6.50;;;;;6.31;76.98;100323.75;4960660;28;45349;-74
2021/12/05 16:41:19;;;;;;;;;12.00;8.00;;;;;6.28;76.79;100329.81;4959216;28;45451;-74
2021/12/05 16:43:57;;;;;;;;;8.00;6.50;;;;;6.34;75.94;100339.63;4966997;28;45509;-74
2021/12/05 16:46:24;;;;;;;;;7.00;7.00;;;;;6.40;76.40;100353.81;5018903;28;45435;-74
2021/12/05 16:48:52;;;;;;;;;9.00;6.00;;;;;6.16;76.17;100318.88;4985740;28;46497;-74
2021/12/05 16:51:24;;;;;;;;;10.50;7.75;;;;;6.27;76.93;100335.88;4966334;28;48087;-74
2021/12/05 16:53:59;;;;;;;;;12.50;11.00;;;;;6.41;76.65;100362.59;4968057;28;45513;-74
2021/12/05 16:57:14;;;;;;;;;17.75;12.75;;;;;6.41;76.71;100366.13;4958351;28;45263;-74
2021/12/05 16:59:47;;;;;;;;;7.75;7.75;;;;;6.42;76.54;100367.03;4955823;28;46485;-74
2021/12/05 17:02:21;;;;;;;;;12.00;10.25;;;;;6.29;76.26;100344.69;4976095;28;46320;-74
2021/12/05 17:04:49;;;;;;;;;12.50;10.75;;;;;6.42;75.75;100373.16;4966801;28;45430;-74
2021/12/05 17:07:35;;;;;;;;;12.50;11.00;;;;;6.42;76.50;100377.53;4959181;28;45274;-74
2021/12/05 17:10:01;;;;;;;;;22.75;19.75;;;;;6.30;76.55;100359.59;4968953;28;45391;-74
2021/12/05 17:12:30;;;;;;;;;24.25;22.25;;;;;6.44;76.36;100391.56;4959455;28;46520;-74
2021/12/05 17:15:17;;;;;;;;;33.25;23.75;;;;;6.27;76.54;100372.63;4961166;28;45403;-74
2021/12/05 17:17:45;;;;;;;;;34.25;26.75;;;;;6.32;76.04;100384.16;4960084;28;45462;-74
2021/12/05 17:20:26;;;;;;;;;11.75;11.25;;;;;6.30;76.07;100375.34;4958866;28;45355;-74
2021/12/05 17:22:58;;;;;;;;;23.00;20.50;;;;;6.40;76.27;100395.81;4998343;28;46315;-75